sensor_id;sensor_type;location;lat;lon;timestamp;pressure;altitude;pressure_sealevel;temperature;humidity
80566;BME280;69915;54.862;10.730;2023-09-12T00:01:06;100995.56;;;18.21;100.00
80566;BME280;69915;54.862;10.730;2023-09-12T00:03:33;100988.28;;;18.16;100.00
80566;BME280;69915;54.862;10.730;2023-09-12T00:06:00;101003.03;;;18.20;100.00
80566;BME280;69915;54.862;10.730;2023-09-12T00:08:26;100998.53;;;18.16;100.00
80566;BME280;69915;54.862;10.730;2023-09-12T00:11:21;101000.81;;;18.14;100.00
80566;BME280;69915;54.862;10.730;2023-09-12T00:13:51;100999.88;;;18.10;100.00
80566;BME280;69915;54.862;10.730;2023-09-12T00:16:17;101000.63;;;18.19;100.00
80566;BME280;69915;54.862;10.730;2023-09-12T00:18:42;100992.38;;;18.31;100.00
80566;BME280;69915;54.862;10.730;2023-09-12T00:21:08;100983.28;;;18.30;100.00
80566;BME280;69915;54.862;10.730;2023-09-12T00:23:34;100987.59;;;18.40;100.00
80566;BME280;69915;54.862;10.730;2023-09-12T00:25:59;101004.06;;;18.57;100.00
80566;BME280;69915;54.862;10.730;2023-09-12T00:28:25;100983.28;;;18.51;100.00
80566;BME280;69915;54.862;10.730;2023-09-12T00:30:51;100989.06;;;18.58;100.00
80566;BME280;69915;54.862;10.730;2023-09-12T00:33:17;101014.50;;;18.72;100.00
80566;BME280;69915;54.862;10.730;2023-09-12T00:35:43;101013.38;;;18.73;100.00
80566;BME280;69915;54.862;10.730;2023-09-12T00:38:09;101005.06;;;18.73;100.00
80566;BME280;69915;54.862;10.730;2023-09-12T00:40:34;100991.16;;;18.61;100.00
80566;BME280;69915;54.862;10.730;2023-09-12T00:43:00;101006.75;;;18.66;100.00
80566;BME280;69915;54.862;10.730;2023-09-12T00:45:26;101006.16;;;18.60;100.00
80566;BME280;69915;54.862;10.730;2023-09-12T00:47:51;100998.06;;;18.55;100.00
80566;BME280;69915;54.862;10.730;2023-09-12T00:50:19;100989.47;;;18.48;100.00
80566;BME280;69915;54.862;10.730;2023-09-12T00:52:46;100998.53;;;18.57;100.00
80566;BME280;69915;54.862;10.730;2023-09-12T00:55:13;101000.03;;;18.55;100.00
80566;BME280;69915;54.862;10.730;2023-09-12T00:57:39;101008.31;;;18.55;100.00
80566;BME280;69915;54.862;10.730;2023-09-12T01:00:07;101004.59;;;18.51;100.00
80566;BME280;69915;54.862;10.730;2023-09-12T01:02:41;100989.41;;;18.36;100.00
80566;BME280;69915;54.862;10.730;2023-09-12T01:05:08;101005.94;;;18.44;100.00
80566;BME280;69915;54.862;10.730;2023-09-12T01:07:36;101001.75;;;18.38;100.00
80566;BME280;69915;54.862;10.730;2023-09-12T01:10:03;100991.44;;;18.27;100.00
80566;BME280;69915;54.862;10.730;2023-09-12T01:12:29;101002.03;;;18.25;100.00
80566;BME280;69915;54.862;10.730;2023-09-12T01:14:55;101026.81;;;18.42;100.00
80566;BME280;69915;54.862;10.730;2023-09-12T01:17:20;100989.06;;;18.17;100.00
80566;BME280;69915;54.862;10.730;2023-09-12T01:19:46;101003.19;;;18.24;100.00
80566;BME280;69915;54.862;10.730;2023-09-12T01:27:42;101013.13;;;18.25;100.00
80566;BME280;69915;54.862;10.730;2023-09-12T01:30:11;101008.84;;;18.27;100.00
80566;BME280;69915;54.862;10.730;2023-09-12T01:32:38;101021.63;;;18.40;100.00
80566;BME280;69915;54.862;10.730;2023-09-12T01:35:05;101000.19;;;18.29;100.00
80566;BME280;69915;54.862;10.730;2023-09-12T01:37:31;101012.97;;;18.42;100.00
80566;BME280;69915;54.862;10.730;2023-09-12T01:39:57;101008.78;;;18.36;100.00
80566;BME280;69915;54.862;10.730;2023-09-12T01:42:23;101000.34;;;18.32;100.00
80566;BME280;69915;54.862;10.730;2023-09-12T01:44:50;100998.38;;;18.33;100.00
80566;BME280;69915;54.862;10.730;2023-09-12T01:47:49;101017.81;;;18.45;100.00
80566;BME280;69915;54.862;10.730;2023-09-12T01:50:19;101012.75;;;18.47;100.00
80566;BME280;69915;54.862;10.730;2023-09-12T01:52:45;100985.69;;;18.32;100.00
80566;BME280;69915;54.862;10.730;2023-09-12T01:55:12;100998.66;;;18.40;100.00
80566;BME280;69915;54.862;10.730;2023-09-12T01:57:38;101011.59;;;18.48;100.00
80566;BME280;69915;54.862;10.730;2023-09-12T02:00:04;100993.94;;;18.40;100.00
80566;BME280;69915;54.862;10.730;2023-09-12T02:02:30;101011.31;;;18.50;100.00
80566;BME280;69915;54.862;10.730;2023-09-12T02:07:36;101003.13;;;18.53;100.00
80566;BME280;69915;54.862;10.730;2023-09-12T02:10:02;100995.97;;;18.52;100.00
80566;BME280;69915;54.862;10.730;2023-09-12T02:12:29;100986.91;;;18.43;100.00
80566;BME280;69915;54.862;10.730;2023-09-12T02:14:55;100997.75;;;18.48;100.00
80566;BME280;69915;54.862;10.730;2023-09-12T02:17:20;101016.78;;;18.58;100.00
80566;BME280;69915;54.862;10.730;2023-09-12T02:19:49;100989.47;;;18.48;100.00
80566;BME280;69915;54.862;10.730;2023-09-12T02:22:15;100979.53;;;18.47;100.00
80566;BME280;69915;54.862;10.730;2023-09-12T02:24:40;101007.44;;;18.63;100.00
80566;BME280;69915;54.862;10.730;2023-09-12T02:27:05;100983.72;;;18.53;100.00
80566;BME280;69915;54.862;10.730;2023-09-12T02:29:31;100975.41;;;18.53;100.00
80566;BME280;69915;54.862;10.730;2023-09-12T02:31:58;100973.16;;;18.55;100.00
80566;BME280;69915;54.862;10.730;2023-09-12T02:34:24;100974.28;;;18.54;100.00
80566;BME280;69915;54.862;10.730;2023-09-12T02:36:49;100978.00;;;18.58;100.00
80566;BME280;69915;54.862;10.730;2023-09-12T02:39:15;100988.84;;;18.63;100.00
80566;BME280;69915;54.862;10.730;2023-09-12T02:41:40;100986.56;;;18.65;100.00
80566;BME280;69915;54.862;10.730;2023-09-12T02:44:06;100983.81;;;18.65;100.00
80566;BME280;69915;54.862;10.730;2023-09-12T02:46:32;100976.97;;;18.63;100.00
80566;BME280;69915;54.862;10.730;2023-09-12T02:48:57;100998.78;;;18.64;100.00
80566;BME280;69915;54.862;10.730;2023-09-12T02:51:25;100990.81;;;18.63;100.00
80566;BME280;69915;54.862;10.730;2023-09-12T02:53:50;100979.81;;;18.54;100.00
80566;BME280;69915;54.862;10.730;2023-09-12T02:56:16;100966.34;;;18.53;100.00
80566;BME280;69915;54.862;10.730;2023-09-12T02:58:41;100985.28;;;18.63;100.00
80566;BME280;69915;54.862;10.730;2023-09-12T03:01:07;100966.91;;;18.58;100.00
80566;BME280;69915;54.862;10.730;2023-09-12T03:03:32;100974.88;;;18.60;100.00
80566;BME280;69915;54.862;10.730;2023-09-12T03:06:01;100966.34;;;18.53;100.00
80566;BME280;69915;54.862;10.730;2023-09-12T03:08:30;100998.44;;;18.66;100.00
80566;BME280;69915;54.862;10.730;2023-09-12T03:10:56;100986.31;;;18.58;100.00
80566;BME280;69915;54.862;10.730;2023-09-12T03:13:25;100988.72;;;18.60;100.00
80566;BME280;69915;54.862;10.730;2023-09-12T03:15:51;100994.63;;;18.58;100.00
80566;BME280;69915;54.862;10.730;2023-09-12T03:18:17;100966.78;;;18.34;100.00
80566;BME280;69915;54.862;10.730;2023-09-12T03:20:42;100992.22;;;18.48;100.00
80566;BME280;69915;54.862;10.730;2023-09-12T03:23:08;100999.19;;;18.54;100.00
80566;BME280;69915;54.862;10.730;2023-09-12T03:25:37;101004.53;;;18.59;100.00
80566;BME280;69915;54.862;10.730;2023-09-12T03:28:07;101013.31;;;18.61;100.00
80566;BME280;69915;54.862;10.730;2023-09-12T03:30:33;101000.34;;;18.53;100.00
80566;BME280;69915;54.862;10.730;2023-09-12T03:32:59;100998.44;;;18.66;100.00
80566;BME280;69915;54.862;10.730;2023-09-12T03:35:25;100975.41;;;18.53;100.00
80566;BME280;69915;54.862;10.730;2023-09-12T03:37:51;100965.03;;;18.50;100.00
80566;BME280;69915;54.862;10.730;2023-09-12T03:40:16;100981.22;;;18.60;100.00
80566;BME280;69915;54.862;10.730;2023-09-12T03:42:41;100981.31;;;18.52;100.00
80566;BME280;69915;54.862;10.730;2023-09-12T03:45:07;100986.50;;;18.53;100.00
80566;BME280;69915;54.862;10.730;2023-09-12T03:47:33;100981.63;;;18.50;100.00
80566;BME280;69915;54.862;10.730;2023-09-12T03:49:58;100985.63;;;18.61;100.00
80566;BME280;69915;54.862;10.730;2023-09-12T03:52:24;100964.53;;;18.48;100.00
80566;BME280;69915;54.862;10.730;2023-09-12T03:54:49;100988.41;;;18.61;100.00
80566;BME280;69915;54.862;10.730;2023-09-12T03:57:16;100970.38;;;18.55;100.00
80566;BME280;69915;54.862;10.730;2023-09-12T03:59:41;100986.75;;;18.60;100.00
80566;BME280;69915;54.862;10.730;2023-09-12T04:02:06;100981.78;;;18.54;100.00
80566;BME280;69915;54.862;10.730;2023-09-12T04:04:32;100997.28;;;18.67;100.00
80566;BME280;69915;54.862;10.730;2023-09-12T04:06:57;100989.75;;;18.55;100.00
80566;BME280;69915;54.862;10.730;2023-09-12T04:09:23;101005.59;;;18.67;100.00
80566;BME280;69915;54.862;10.730;2023-09-12T04:11:48;101008.25;;;18.63;100.00
80566;BME280;69915;54.862;10.730;2023-09-12T04:14:14;101000.84;;;18.55;100.00
80566;BME280;69915;54.862;10.730;2023-09-12T04:16:39;101021.41;;;18.66;100.00
80566;BME280;69915;54.862;10.730;2023-09-12T04:19:05;101000.16;;;18.58;100.00
80566;BME280;69915;54.862;10.730;2023-09-12T04:21:30;101023.97;;;18.71;100.00
80566;BME280;69915;54.862;10.730;2023-09-12T04:23:56;100997.84;;;18.60;100.00
80566;BME280;69915;54.862;10.730;2023-09-12T04:26:21;101016.81;;;18.70;100.00
80566;BME280;69915;54.862;10.730;2023-09-12T04:28:47;101004.53;;;18.59;100.00
80566;BME280;69915;54.862;10.730;2023-09-12T04:31:12;101013.09;;;18.66;100.00
80566;BME280;69915;54.862;10.730;2023-09-12T04:33:38;100997.53;;;18.62;100.00
80566;BME280;69915;54.862;10.730;2023-09-12T04:36:03;100996.69;;;18.61;100.00
80566;BME280;69915;54.862;10.730;2023-09-12T04:38:29;100997.03;;;18.60;100.00
80566;BME280;69915;54.862;10.730;2023-09-12T04:40:55;101013.22;;;18.70;100.00
80566;BME280;69915;54.862;10.730;2023-09-12T04:43:21;100998.38;;;18.54;100.00
80566;BME280;69915;54.862;10.730;2023-09-12T04:45:46;100996.66;;;18.49;100.00
80566;BME280;69915;54.862;10.730;2023-09-12T04:48:13;101020.00;;;18.60;100.00
80566;BME280;69915;54.862;10.730;2023-09-12T04:50:42;101009.00;;;18.52;100.00
80566;BME280;69915;54.862;10.730;2023-09-12T04:53:08;101011.22;;;18.58;100.00
80566;BME280;69915;54.862;10.730;2023-09-12T04:55:37;100988.03;;;18.42;100.00
80566;BME280;69915;54.862;10.730;2023-09-12T04:58:04;100997.31;;;18.46;100.00
80566;BME280;69915;54.862;10.730;2023-09-12T05:00:30;100986.03;;;18.30;100.00
80566;BME280;69915;54.862;10.730;2023-09-12T05:02:55;100980.56;;;18.22;100.00
80566;BME280;69915;54.862;10.730;2023-09-12T05:05:21;100993.25;;;18.23;100.00
80566;BME280;69915;54.862;10.730;2023-09-12T05:07:46;100994.41;;;18.22;100.00
80566;BME280;69915;54.862;10.730;2023-09-12T05:10:12;101005.94;;;18.24;100.00
80566;BME280;69915;54.862;10.730;2023-09-12T05:12:38;101011.41;;;18.32;100.00
80566;BME280;69915;54.862;10.730;2023-09-12T05:15:04;101007.63;;;18.37;100.00
80566;BME280;69915;54.862;10.730;2023-09-12T05:17:29;101020.41;;;18.50;100.00
80566;BME280;69915;54.862;10.730;2023-09-12T05:19:55;101024.13;;;18.54;100.00
80566;BME280;69915;54.862;10.730;2023-09-12T05:22:20;101003.66;;;18.46;100.00
80566;BME280;69915;54.862;10.730;2023-09-12T05:24:46;101011.91;;;18.55;100.00
80566;BME280;69915;54.862;10.730;2023-09-12T05:27:11;101010.28;;;18.54;100.00
80566;BME280;69915;54.862;10.730;2023-09-12T05:29:37;101015.13;;;18.57;100.00
80566;BME280;69915;54.862;10.730;2023-09-12T05:32:04;100995.66;;;18.45;100.00
80566;BME280;69915;54.862;10.730;2023-09-12T05:34:29;100992.72;;;18.50;100.00
80566;BME280;69915;54.862;10.730;2023-09-12T05:36:56;101020.94;;;18.64;100.00
80566;BME280;69915;54.862;10.730;2023-09-12T05:39:22;101001.09;;;18.62;100.00
80566;BME280;69915;54.862;10.730;2023-09-12T05:41:48;101020.63;;;18.78;100.00
80566;BME280;69915;54.862;10.730;2023-09-12T05:44:14;101000.78;;;18.76;100.00
80566;BME280;69915;54.862;10.730;2023-09-12T05:46:47;101011.81;;;18.96;100.00
80566;BME280;69915;54.862;10.730;2023-09-12T05:49:13;100995.19;;;18.96;100.00
80566;BME280;69915;54.862;10.730;2023-09-12T05:51:39;101023.88;;;19.13;100.00
80566;BME280;69915;54.862;10.730;2023-09-12T05:54:05;101012.53;;;19.06;100.00
80566;BME280;69915;54.862;10.730;2023-09-12T05:56:31;101018.91;;;19.18;100.00
80566;BME280;69915;54.862;10.730;2023-09-12T05:58:56;101031.19;;;19.29;100.00
80566;BME280;69915;54.862;10.730;2023-09-12T06:01:21;101042.84;;;19.35;100.00
80566;BME280;69915;54.862;10.730;2023-09-12T06:03:47;101036.81;;;19.33;100.00
80566;BME280;69915;54.862;10.730;2023-09-12T06:06:12;101022.38;;;19.27;100.00
80566;BME280;69915;54.862;10.730;2023-09-12T06:08:38;101004.72;;;19.20;100.00
80566;BME280;69915;54.862;10.730;2023-09-12T06:11:04;101041.28;;;19.46;100.00
80566;BME280;69915;54.862;10.730;2023-09-12T06:13:29;101043.59;;;19.44;100.00
80566;BME280;69915;54.862;10.730;2023-09-12T06:15:55;101031.09;;;19.38;100.00
80566;BME280;69915;54.862;10.730;2023-09-12T06:18:20;101053.41;;;19.41;100.00
80566;BME280;69915;54.862;10.730;2023-09-12T06:20:46;101026.34;;;19.26;100.00
80566;BME280;69915;54.862;10.730;2023-09-12T06:23:11;101042.72;;;19.31;100.00
80566;BME280;69915;54.862;10.730;2023-09-12T06:25:37;101030.38;;;19.29;100.00
80566;BME280;69915;54.862;10.730;2023-09-12T06:28:03;101021.56;;;19.15;100.00
80566;BME280;69915;54.862;10.730;2023-09-12T06:30:28;101042.16;;;19.26;100.00
80566;BME280;69915;54.862;10.730;2023-09-12T06:32:54;101044.69;;;19.31;100.00
80566;BME280;69915;54.862;10.730;2023-09-12T06:35:19;101045.09;;;19.41;100.00
80566;BME280;69915;54.862;10.730;2023-09-12T06:37:45;101050.28;;;19.55;100.00
80566;BME280;69915;54.862;10.730;2023-09-12T06:40:12;101053.06;;;19.67;100.00
80566;BME280;69915;54.862;10.730;2023-09-12T06:42:38;101034.47;;;19.68;100.00
80566;BME280;69915;54.862;10.730;2023-09-12T06:45:03;101032.28;;;19.73;100.00
80566;BME280;69915;54.862;10.730;2023-09-12T06:47:29;101062.56;;;19.90;100.00
80566;BME280;69915;54.862;10.730;2023-09-12T06:49:54;101066.63;;;19.93;100.00
80566;BME280;69915;54.862;10.730;2023-09-12T06:52:20;101069.97;;;19.98;100.00
80566;BME280;69915;54.862;10.730;2023-09-12T06:54:46;101061.88;;;19.93;100.00
80566;BME280;69915;54.862;10.730;2023-09-12T06:57:11;101066.13;;;19.91;100.00
80566;BME280;69915;54.862;10.730;2023-09-12T06:59:36;101057.81;;;19.91;100.00
80566;BME280;69915;54.862;10.730;2023-09-12T07:02:03;101049.16;;;19.80;100.00
80566;BME280;69915;54.862;10.730;2023-09-12T07:04:29;101055.28;;;19.86;100.00
80566;BME280;69915;54.862;10.730;2023-09-12T07:06:55;101067.19;;;19.86;100.00
80566;BME280;69915;54.862;10.730;2023-09-12T07:09:20;101057.47;;;19.80;100.00
80566;BME280;69915;54.862;10.730;2023-09-12T07:11:46;101054.81;;;19.84;100.00
80566;BME280;69915;54.862;10.730;2023-09-12T07:14:12;101081.50;;;19.88;100.00
80566;BME280;69915;54.862;10.730;2023-09-12T07:16:37;101068.13;;;19.78;100.00
80566;BME280;69915;54.862;10.730;2023-09-12T07:19:03;101077.34;;;19.94;100.00
80566;BME280;69915;54.862;10.730;2023-09-12T07:21:29;101089.72;;;19.97;100.00
80566;BME280;69915;54.862;10.730;2023-09-12T07:23:55;101080.13;;;20.06;100.00
80566;BME280;69915;54.862;10.730;2023-09-12T07:26:20;101074.34;;;20.12;100.00
80566;BME280;69915;54.862;10.730;2023-09-12T07:28:46;101076.44;;;20.27;100.00
80566;BME280;69915;54.862;10.730;2023-09-12T07:31:11;101061.00;;;20.41;99.23
80566;BME280;69915;54.862;10.730;2023-09-12T07:33:37;101051.31;;;20.35;98.39
80566;BME280;69915;54.862;10.730;2023-09-12T07:36:02;101061.34;;;20.40;98.01
80566;BME280;69915;54.862;10.730;2023-09-12T07:38:28;101062.75;;;20.34;98.08
80566;BME280;69915;54.862;10.730;2023-09-12T07:40:56;101073.16;;;20.25;98.54
80566;BME280;69915;54.862;10.730;2023-09-12T07:43:22;101089.63;;;20.18;99.06
80566;BME280;69915;54.862;10.730;2023-09-12T07:45:48;101082.31;;;20.13;99.56
80566;BME280;69915;54.862;10.730;2023-09-12T07:48:14;101066.13;;;20.03;99.78
80566;BME280;69915;54.862;10.730;2023-09-12T07:50:40;101055.41;;;19.89;100.00
80566;BME280;69915;54.862;10.730;2023-09-12T07:53:06;101073.66;;;20.02;100.00
80566;BME280;69915;54.862;10.730;2023-09-12T07:55:36;101062.22;;;19.92;100.00
80566;BME280;69915;54.862;10.730;2023-09-12T07:58:11;101085.44;;;20.24;99.85
80566;BME280;69915;54.862;10.730;2023-09-12T08:00:37;101076.41;;;20.39;98.90
80566;BME280;69915;54.862;10.730;2023-09-12T08:03:02;101061.59;;;20.35;97.91
80566;BME280;69915;54.862;10.730;2023-09-12T08:05:28;101044.41;;;20.57;97.86
80566;BME280;69915;54.862;10.730;2023-09-12T08:07:53;101064.53;;;20.66;96.44
80566;BME280;69915;54.862;10.730;2023-09-12T08:10:19;101069.31;;;20.53;96.64
80566;BME280;69915;54.862;10.730;2023-09-12T08:12:45;101060.34;;;20.32;96.70
80566;BME280;69915;54.862;10.730;2023-09-12T08:15:10;101050.38;;;20.31;97.25
80566;BME280;69915;54.862;10.730;2023-09-12T08:17:36;101049.69;;;20.22;97.32
80566;BME280;69915;54.862;10.730;2023-09-12T08:20:01;101078.72;;;20.25;97.65
80566;BME280;69915;54.862;10.730;2023-09-12T08:22:27;101070.19;;;20.18;98.00
80566;BME280;69915;54.862;10.730;2023-09-12T08:24:53;101063.94;;;20.21;98.10
80566;BME280;69915;54.862;10.730;2023-09-12T08:27:18;101074.44;;;20.15;98.18
80566;BME280;69915;54.862;10.730;2023-09-12T08:29:43;101071.56;;;20.24;97.65
80566;BME280;69915;54.862;10.730;2023-09-12T08:32:12;101074.34;;;20.36;97.80
80566;BME280;69915;54.862;10.730;2023-09-12T08:34:37;101053.25;;;20.47;97.79
80566;BME280;69915;54.862;10.730;2023-09-12T08:37:02;101052.88;;;21.04;95.98
80566;BME280;69915;54.862;10.730;2023-09-12T08:39:40;101038.34;;;21.38;92.96
80566;BME280;69915;54.862;10.730;2023-09-12T08:42:13;101051.63;;;21.92;92.36
80566;BME280;69915;54.862;10.730;2023-09-12T08:44:40;101054.88;;;22.29;88.84
80566;BME280;69915;54.862;10.730;2023-09-12T08:47:08;101037.91;;;22.18;87.66
80566;BME280;69915;54.862;10.730;2023-09-12T08:49:36;101035.19;;;22.75;86.66
80566;BME280;69915;54.862;10.730;2023-09-12T08:52:07;101036.34;;;23.36;84.34
80566;BME280;69915;54.862;10.730;2023-09-12T08:54:32;101049.28;;;23.93;81.73
80566;BME280;69915;54.862;10.730;2023-09-12T08:57:01;101028.66;;;23.52;81.57
80566;BME280;69915;54.862;10.730;2023-09-12T08:59:28;101049.00;;;23.75;81.06
80566;BME280;69915;54.862;10.730;2023-09-12T09:01:55;101040.94;;;23.70;80.66
80566;BME280;69915;54.862;10.730;2023-09-12T09:04:23;101047.81;;;23.76;80.07
80566;BME280;69915;54.862;10.730;2023-09-12T09:06:52;101050.38;;;23.62;80.65
80566;BME280;69915;54.862;10.730;2023-09-12T09:09:20;101043.06;;;23.12;82.01
80566;BME280;69915;54.862;10.730;2023-09-12T09:11:46;101062.28;;;22.75;83.29
80566;BME280;69915;54.862;10.730;2023-09-12T09:14:11;101050.84;;;22.45;84.25
80566;BME280;69915;54.862;10.730;2023-09-12T09:16:37;101064.31;;;22.59;84.83
80566;BME280;69915;54.862;10.730;2023-09-12T09:19:04;101055.75;;;22.67;84.31
80566;BME280;69915;54.862;10.730;2023-09-12T09:21:36;101049.16;;;22.60;84.26
80566;BME280;69915;54.862;10.730;2023-09-12T09:24:13;101060.34;;;22.79;83.65
80566;BME280;69915;54.862;10.730;2023-09-12T09:26:46;101066.25;;;22.74;83.42
80566;BME280;69915;54.862;10.730;2023-09-12T09:29:16;101046.34;;;22.75;83.86
80566;BME280;69915;54.862;10.730;2023-09-12T09:31:44;101068.72;;;22.79;83.63
80566;BME280;69915;54.862;10.730;2023-09-12T09:34:14;101065.44;;;22.73;83.86
80566;BME280;69915;54.862;10.730;2023-09-12T09:36:53;101063.69;;;22.65;83.41
80566;BME280;69915;54.862;10.730;2023-09-12T09:39:21;101072.34;;;23.21;83.77
80566;BME280;69915;54.862;10.730;2023-09-12T09:41:53;101077.00;;;23.56;81.63
80566;BME280;69915;54.862;10.730;2023-09-12T09:44:21;101074.09;;;23.98;81.71
80566;BME280;69915;54.862;10.730;2023-09-12T09:46:50;101065.22;;;23.24;79.92
80566;BME280;69915;54.862;10.730;2023-09-12T09:49:19;101093.34;;;23.15;80.95
80566;BME280;69915;54.862;10.730;2023-09-12T09:51:45;101088.06;;;23.10;82.97
80566;BME280;69915;54.862;10.730;2023-09-12T09:54:11;101100.06;;;22.57;83.42
80566;BME280;69915;54.862;10.730;2023-09-12T09:56:53;101110.91;;;22.43;85.09
80566;BME280;69915;54.862;10.730;2023-09-12T09:59:21;101084.97;;;22.58;84.99
80566;BME280;69915;54.862;10.730;2023-09-12T10:01:49;101105.63;;;22.92;84.68
80566;BME280;69915;54.862;10.730;2023-09-12T10:04:16;101096.19;;;22.61;83.85
80566;BME280;69915;54.862;10.730;2023-09-12T10:06:44;101113.13;;;22.53;84.59
80566;BME280;69915;54.862;10.730;2023-09-12T10:09:11;101109.28;;;22.76;84.32
80566;BME280;69915;54.862;10.730;2023-09-12T10:11:38;101109.22;;;22.73;84.51
80566;BME280;69915;54.862;10.730;2023-09-12T10:14:05;101094.91;;;23.13;83.67
80566;BME280;69915;54.862;10.730;2023-09-12T10:16:33;101115.00;;;23.22;81.35
80566;BME280;69915;54.862;10.730;2023-09-12T10:21:37;101099.44;;;23.40;79.40
80566;BME280;69915;54.862;10.730;2023-09-12T10:24:06;101094.91;;;23.55;79.41
80566;BME280;69915;54.862;10.730;2023-09-12T10:26:34;101113.19;;;23.10;80.43
80566;BME280;69915;54.862;10.730;2023-09-12T10:29:00;101102.34;;;22.86;81.42
80566;BME280;69915;54.862;10.730;2023-09-12T10:31:27;101095.22;;;22.89;82.28
80566;BME280;69915;54.862;10.730;2023-09-12T10:33:53;101118.97;;;22.48;83.62
80566;BME280;69915;54.862;10.730;2023-09-12T10:36:19;101103.66;;;22.57;83.71
80566;BME280;69915;54.862;10.730;2023-09-12T10:38:47;101099.28;;;22.56;83.51
80566;BME280;69915;54.862;10.730;2023-09-12T10:41:14;101104.88;;;22.75;84.32
80566;BME280;69915;54.862;10.730;2023-09-12T10:43:42;101090.69;;;22.81;83.31
80566;BME280;69915;54.862;10.730;2023-09-12T10:46:09;101106.16;;;22.78;82.60
80566;BME280;69915;54.862;10.730;2023-09-12T10:48:35;101107.19;;;22.89;82.79
80566;BME280;69915;54.862;10.730;2023-09-12T10:51:02;101085.28;;;22.91;82.16
80566;BME280;69915;54.862;10.730;2023-09-12T10:53:32;101089.72;;;22.92;82.03
80566;BME280;69915;54.862;10.730;2023-09-12T10:56:22;101093.97;;;23.05;82.04
80566;BME280;69915;54.862;10.730;2023-09-12T11:01:35;101093.00;;;22.98;80.80
80566;BME280;69915;54.862;10.730;2023-09-12T11:06:50;101113.72;;;23.39;81.24
80566;BME280;69915;54.862;10.730;2023-09-12T11:09:23;101091.88;;;23.41;80.33
80566;BME280;69915;54.862;10.730;2023-09-12T11:11:55;101101.13;;;23.45;80.22
80566;BME280;69915;54.862;10.730;2023-09-12T11:14:21;101114.31;;;23.93;79.65
80566;BME280;69915;54.862;10.730;2023-09-12T11:19:44;101121.34;;;24.32;77.40
80566;BME280;69915;54.862;10.730;2023-09-12T11:22:27;101124.69;;;24.15;77.74
80566;BME280;69915;54.862;10.730;2023-09-12T11:24:54;101116.31;;;23.70;77.47
80566;BME280;69915;54.862;10.730;2023-09-12T11:27:30;101105.41;;;23.61;78.42
80566;BME280;69915;54.862;10.730;2023-09-12T11:30:03;101127.59;;;24.22;78.48
80566;BME280;69915;54.862;10.730;2023-09-12T11:32:35;101091.22;;;23.96;76.09
80566;BME280;69915;54.862;10.730;2023-09-12T11:35:10;101109.09;;;24.41;76.58
80566;BME280;69915;54.862;10.730;2023-09-12T11:37:36;101125.03;;;24.36;75.99
80566;BME280;69915;54.862;10.730;2023-09-12T11:42:43;101111.00;;;24.10;75.71
80566;BME280;69915;54.862;10.730;2023-09-12T11:45:09;101104.16;;;23.81;75.89
80566;BME280;69915;54.862;10.730;2023-09-12T11:47:45;101109.03;;;23.43;77.67
80566;BME280;69915;54.862;10.730;2023-09-12T11:50:30;101114.03;;;23.33;77.67
80566;BME280;69915;54.862;10.730;2023-09-12T11:53:07;101114.81;;;23.53;77.90
80566;BME280;69915;54.862;10.730;2023-09-12T11:55:54;101119.75;;;23.60;77.42
80566;BME280;69915;54.862;10.730;2023-09-12T11:58:21;101108.88;;;23.77;76.46
80566;BME280;69915;54.862;10.730;2023-09-12T12:03:15;101106.56;;;23.83;76.23
80566;BME280;69915;54.862;10.730;2023-09-12T12:05:41;101082.16;;;23.54;76.40
80566;BME280;69915;54.862;10.730;2023-09-12T12:08:07;101085.47;;;23.40;76.17
80566;BME280;69915;54.862;10.730;2023-09-12T12:10:34;101084.97;;;23.80;77.37
80566;BME280;69915;54.862;10.730;2023-09-12T12:12:59;101075.16;;;23.90;76.64
80566;BME280;69915;54.862;10.730;2023-09-12T12:15:27;101094.97;;;23.81;76.77
80566;BME280;69915;54.862;10.730;2023-09-12T12:17:56;101079.78;;;23.56;76.77
80566;BME280;69915;54.862;10.730;2023-09-12T12:20:21;101083.88;;;23.62;77.03
80566;BME280;69915;54.862;10.730;2023-09-12T12:22:47;101093.00;;;23.59;76.50
80566;BME280;69915;54.862;10.730;2023-09-12T12:25:14;101082.22;;;23.57;76.54
80566;BME280;69915;54.862;10.730;2023-09-12T12:27:41;101071.22;;;23.68;76.58
80566;BME280;69915;54.862;10.730;2023-09-12T12:30:09;101069.44;;;23.79;75.22
80566;BME280;69915;54.862;10.730;2023-09-12T12:32:45;101080.59;;;24.05;75.54
80566;BME280;69915;54.862;10.730;2023-09-12T12:35:23;101070.34;;;24.13;74.47
80566;BME280;69915;54.862;10.730;2023-09-12T12:37:50;101076.88;;;24.50;74.63
80566;BME280;69915;54.862;10.730;2023-09-12T12:40:17;101071.09;;;24.66;75.51
80566;BME280;69915;54.862;10.730;2023-09-12T12:42:43;101053.06;;;24.60;74.05
80566;BME280;69915;54.862;10.730;2023-09-12T12:45:18;101053.03;;;24.86;73.01
80566;BME280;69915;54.862;10.730;2023-09-12T12:47:44;101076.00;;;24.43;73.92
80566;BME280;69915;54.862;10.730;2023-09-12T12:50:11;101068.06;;;24.18;74.33
80566;BME280;69915;54.862;10.730;2023-09-12T12:52:38;101050.91;;;23.94;74.90
80566;BME280;69915;54.862;10.730;2023-09-12T12:55:05;101062.88;;;23.94;75.46
80566;BME280;69915;54.862;10.730;2023-09-12T12:57:31;101049.00;;;23.75;76.89